Norse Mersey — IBEN — position and weather

sailwx.info

Track history (hours):
 
Tides and Currents Weather Stations Pressure Air Temp Water Temp Dewpoint Dewpoint Depression Visibility Wind Speed Wind Dir Waves Ship Positions

Norse Mersey

Operator: Norse Merchant Ferries

Last reported at 2016-Jul-01 07:16 UTC. Time now 2016-Jul-01 08:09 UTC.
Position N 39°08' E 015°18'.

Length 175 m; draft 5.2 m.

Type: Passenger vessel. MMSI: 247026000.

Date/timePositionNaut miles runAvg speedWind from/ knotsBaromVisibWave heightAir tempDewpointWater temp
2016-Jul-01 07:16N 39°08' E 015°18'1215.6
2016-Jul-01 06:28N 38°57' E 015°24'1415.6
2016-Jul-01 05:33N 38°43' E 015°30'1615.8
2016-Jul-01 04:33N 38°29' E 015°37'1413.9
2016-Jul-01 03:33N 38°15' E 015°40'1313.4
2016-Jul-01 02:33N 38°02' E 015°35'1313.3
2016-Jul-01 01:33N 37°51' E 015°27'15 0.9
2016-Jun-30 08:20N 37°38' E 015°16'1315.7
2016-Jun-30 07:30N 37°50' E 015°23'1515.7
2016-Jun-30 06:33N 38°03' E 015°32'1615.8
2016-Jun-30 05:33N 38°17' E 015°41'1514.6
2016-Jun-30 04:34N 38°31' E 015°34'1615.1
2016-Jun-30 03:29N 38°46' E 015°27'8215.2
2016-Jun-29 22:04N 40°03' E 014°50'78 3.8
2016-Jun-29 01:34N 38°50' E 015°27'1615.4
2016-Jun-29 00:33N 38°36' E 015°34'1515.5
2016-Jun-28 23:33N 38°22' E 015°42'1312.8
2016-Jun-28 22:34N 38°09' E 015°37'1414.3
2016-Jun-28 21:33N 37°56' E 015°30'8 0.6
2016-Jun-28 06:28N 37°50' E 015°23'3015.8
2016-Jun-28 04:33N 38°17' E 015°41'1515.4
2016-Jun-28 03:33N 38°31' E 015°34'1515.4
2016-Jun-28 02:33N 38°46' E 015°28'10615.1
2016-Jun-27 19:33N 40°26' E 014°45'97 2.4
2016-Jun-26 03:18N 38°55' E 015°25'1215.5
2016-Jun-26 02:33N 38°44' E 015°30'1615.9
2016-Jun-26 01:33N 38°29' E 015°38'1414.1
2016-Jun-26 00:33N 38°15' E 015°41'1313.5
2016-Jun-25 23:34N 38°03' E 015°33'1615.1
2016-Jun-25 22:32N 37°49' E 015°25'7 0.5
2016-Jun-25 09:33N 37°44' E 015°20'1515.5
2016-Jun-25 08:33N 37°58' E 015°29'1615.9
2016-Jun-25 07:33N 38°12' E 015°36'1313.2
2016-Jun-25 06:33N 38°26' E 015°37'1514.9
2016-Jun-25 05:33N 38°40' E 015°30'1515.0
2016-Jun-25 04:32N 38°54' E 015°24'89 4.6
2016-Jun-24 09:07N 40°18' E 014°46'9015.4
2016-Jun-24 03:15N 38°53' E 015°26'1115.7
2016-Jun-24 02:32N 38°43' E 015°31'1515.7
2016-Jun-24 01:33N 38°28' E 015°38'1313.6
2016-Jun-24 00:34N 38°15' E 015°40'1313.2
2016-Jun-23 23:33N 38°03' E 015°33'1614.6
2016-Jun-23 22:28N 37°48' E 015°25'9 0.6
2016-Jun-23 07:24N 37°41' E 015°18'2815.4
2016-Jun-23 05:33N 38°07' E 015°34'1413.9
2016-Jun-23 04:33N 38°20' E 015°40'1515.0
2016-Jun-23 03:33N 38°34' E 015°33'1515.0
2016-Jun-23 02:33N 38°48' E 015°26'1815.2
2016-Jun-23 01:22N 39°05' E 015°19'7815.3
2016-Jun-22 20:18N 40°18' E 014°45'1115.1
2016-Jun-22 19:34N 40°29' E 014°44'98 5.6
2016-Jun-22 02:09N 38°57' E 015°23'915.5
2016-Jun-22 01:33N 38°48' E 015°28'1615.5
2016-Jun-22 00:33N 38°34' E 015°35'1515.2
2016-Jun-21 23:33N 38°19' E 015°42'1312.8
2016-Jun-21 22:33N 38°07' E 015°36'1514.5
2016-Jun-21 21:33N 37°54' E 015°28'14 1.0
2016-Jun-21 07:30N 37°42' E 015°19'  
Track history (hours):
 
Tides and Currents Weather Stations Pressure Air Temp Water Temp Dewpoint Dewpoint Depression Visibility Wind Speed Wind Dir Waves Ship Positions

Norse Mersey

Operator: Norse Merchant Ferries

Last reported at 2016-Jul-01 07:16 UTC. Time now 2016-Jul-01 08:09 UTC.
Position N 39°08' E 015°18'.

Length 175 m; draft 5.2 m.

Type: Passenger vessel. MMSI: 247026000.

Date/timePositionNaut miles runAvg speedWind from/ knotsBaromVisibWave heightAir tempDewpointWater temp
2016-Jul-01 07:16N 39°08' E 015°18'1215.6
2016-Jul-01 06:28N 38°57' E 015°24'1415.6
2016-Jul-01 05:33N 38°43' E 015°30'1615.8
2016-Jul-01 04:33N 38°29' E 015°37'1413.9
2016-Jul-01 03:33N 38°15' E 015°40'1313.4
2016-Jul-01 02:33N 38°02' E 015°35'1313.3
2016-Jul-01 01:33N 37°51' E 015°27'15 0.9
2016-Jun-30 08:20N 37°38' E 015°16'1315.7
2016-Jun-30 07:30N 37°50' E 015°23'1515.7
2016-Jun-30 06:33N 38°03' E 015°32'1615.8
2016-Jun-30 05:33N 38°17' E 015°41'1514.6
2016-Jun-30 04:34N 38°31' E 015°34'1615.1
2016-Jun-30 03:29N 38°46' E 015°27'8215.2
2016-Jun-29 22:04N 40°03' E 014°50'78 3.8
2016-Jun-29 01:34N 38°50' E 015°27'1615.4
2016-Jun-29 00:33N 38°36' E 015°34'1515.5
2016-Jun-28 23:33N 38°22' E 015°42'1312.8
2016-Jun-28 22:34N 38°09' E 015°37'1414.3
2016-Jun-28 21:33N 37°56' E 015°30'8 0.6
2016-Jun-28 06:28N 37°50' E 015°23'3015.8
2016-Jun-28 04:33N 38°17' E 015°41'1515.4
2016-Jun-28 03:33N 38°31' E 015°34'1515.4
2016-Jun-28 02:33N 38°46' E 015°28'10615.1
2016-Jun-27 19:33N 40°26' E 014°45'97 2.4
2016-Jun-26 03:18N 38°55' E 015°25'1215.5
2016-Jun-26 02:33N 38°44' E 015°30'1615.9
2016-Jun-26 01:33N 38°29' E 015°38'1414.1
2016-Jun-26 00:33N 38°15' E 015°41'1313.5
2016-Jun-25 23:34N 38°03' E 015°33'1615.1
2016-Jun-25 22:32N 37°49' E 015°25'7 0.5
2016-Jun-25 09:33N 37°44' E 015°20'1515.5
2016-Jun-25 08:33N 37°58' E 015°29'1615.9
2016-Jun-25 07:33N 38°12' E 015°36'1313.2
2016-Jun-25 06:33N 38°26' E 015°37'1514.9
2016-Jun-25 05:33N 38°40' E 015°30'1515.0
2016-Jun-25 04:32N 38°54' E 015°24'89 4.6
2016-Jun-24 09:07N 40°18' E 014°46'9015.4
2016-Jun-24 03:15N 38°53' E 015°26'1115.7
2016-Jun-24 02:32N 38°43' E 015°31'1515.7
2016-Jun-24 01:33N 38°28' E 015°38'1313.6
2016-Jun-24 00:34N 38°15' E 015°40'1313.2
2016-Jun-23 23:33N 38°03' E 015°33'1614.6
2016-Jun-23 22:28N 37°48' E 015°25'9 0.6
2016-Jun-23 07:24N 37°41' E 015°18'2815.4
2016-Jun-23 05:33N 38°07' E 015°34'1413.9
2016-Jun-23 04:33N 38°20' E 015°40'1515.0
2016-Jun-23 03:33N 38°34' E 015°33'1515.0
2016-Jun-23 02:33N 38°48' E 015°26'1815.2
2016-Jun-23 01:22N 39°05' E 015°19'7815.3
2016-Jun-22 20:18N 40°18' E 014°45'1115.1
2016-Jun-22 19:34N 40°29' E 014°44'98 5.6
2016-Jun-22 02:09N 38°57' E 015°23'915.5
2016-Jun-22 01:33N 38°48' E 015°28'1615.5
2016-Jun-22 00:33N 38°34' E 015°35'1515.2
2016-Jun-21 23:33N 38°19' E 015°42'1312.8
2016-Jun-21 22:33N 38°07' E 015°36'1514.5
2016-Jun-21 21:33N 37°54' E 015°28'14 1.0
2016-Jun-21 07:30N 37°42' E 015°19'  

Dump ship's entire track history